createdAt,value
2016-11-06T00:00:34.441Z,0
2016-11-06T00:01:48.530Z,0
2016-11-06T00:03:01.030Z,0
2016-11-06T00:04:14.574Z,0
2016-11-06T00:05:27.899Z,0
2016-11-06T00:06:41.437Z,0
2016-11-06T00:07:54.770Z,0
2016-11-06T00:09:07.925Z,0
2016-11-06T00:10:21.638Z,0
2016-11-06T00:11:35.235Z,0
2016-11-06T00:12:48.291Z,0
2016-11-06T00:14:01.825Z,0
2016-11-06T00:15:15.369Z,0
2016-11-06T00:16:28.322Z,0
2016-11-06T00:17:41.913Z,0
2016-11-06T00:18:55.839Z,0
2016-11-06T00:20:08.905Z,0
2016-11-06T00:21:22.182Z,0
2016-11-06T00:22:35.872Z,0
2016-11-06T00:23:48.476Z,0
2016-11-06T00:25:01.073Z,0
2016-11-06T00:26:14.626Z,0
2016-11-06T00:27:28.110Z,0
2016-11-06T00:28:41.177Z,0
2016-11-06T00:29:54.432Z,0
2016-11-06T00:31:07.498Z,0
2016-11-06T00:32:20.597Z,0
2016-11-06T00:33:34.158Z,0
2016-11-06T00:34:47.826Z,0
2016-11-06T00:36:01.429Z,0
2016-11-06T00:37:15.374Z,0
2016-11-06T00:38:29.240Z,0
2016-11-06T00:39:42.250Z,0
2016-11-06T00:40:55.788Z,0
2016-11-06T00:42:09.408Z,0
2016-11-06T00:43:22.970Z,0
2016-11-06T00:44:36.050Z,0
2016-11-06T00:45:49.358Z,0
2016-11-06T00:47:02.962Z,0
2016-11-06T00:48:16.047Z,0
2016-11-06T00:49:29.648Z,0
2016-11-06T00:50:42.671Z,0
2016-11-06T00:51:56.261Z,0
2016-11-06T00:53:09.263Z,0
2016-11-06T00:54:22.837Z,0
2016-11-06T00:55:36.420Z,0
2016-11-06T00:56:49.432Z,0
2016-11-06T00:58:03.091Z,0
2016-11-06T00:59:47.799Z,0
2016-11-06T01:01:00.840Z,0
2016-11-06T01:02:14.457Z,0
2016-11-06T01:03:27.261Z,0
2016-11-06T01:04:40.898Z,0
2016-11-06T01:05:54.784Z,0
2016-11-06T01:07:07.752Z,0
2016-11-06T01:08:20.306Z,0
2016-11-06T01:09:33.859Z,0
2016-11-06T01:10:47.502Z,0
2016-11-06T01:12:00.566Z,0
2016-11-06T01:13:13.586Z,0
2016-11-06T01:14:27.106Z,0
2016-11-06T01:15:40.699Z,0
2016-11-06T01:16:53.765Z,0
2016-11-06T01:18:07.317Z,0
2016-11-06T01:19:20.972Z,0
2016-11-06T01:20:34.084Z,0
2016-11-06T01:21:47.645Z,0
2016-11-06T01:23:01.244Z,0
2016-11-06T01:24:14.900Z,0
2016-11-06T01:25:28.035Z,0
2016-11-06T01:26:41.057Z,0
2016-11-06T01:27:54.087Z,0
2016-11-06T01:29:07.685Z,0
2016-11-06T01:30:21.559Z,0
2016-11-06T01:31:35.112Z,0
2016-11-06T01:32:48.739Z,0
2016-11-06T01:34:01.787Z,0
2016-11-06T01:35:15.361Z,0
2016-11-06T01:36:27.848Z,0
2016-11-06T01:37:40.858Z,0
2016-11-06T01:38:54.704Z,0
2016-11-06T01:40:07.802Z,0
2016-11-06T01:41:21.601Z,0
2016-11-06T01:42:35.206Z,0
2016-11-06T01:43:48.515Z,0
2016-11-06T01:45:33.135Z,0
2016-11-06T01:46:46.636Z,0
2016-11-06T01:48:00.259Z,0
2016-11-06T01:49:13.259Z,0
2016-11-06T01:50:26.869Z,0
2016-11-06T01:51:40.515Z,0
2016-11-06T01:52:54.172Z,0
2016-11-06T01:54:07.241Z,0
2016-11-06T01:55:20.874Z,0
2016-11-06T01:56:33.912Z,0
2016-11-06T01:57:46.938Z,0
2016-11-06T01:59:00.523Z,0
2016-11-06T02:00:14.428Z,0
2016-11-06T02:01:26.918Z,0
2016-11-06T02:02:40.455Z,0
2016-11-06T02:03:54.017Z,0
2016-11-06T02:05:07.143Z,0
2016-11-06T02:06:20.786Z,0
2016-11-06T02:07:34.338Z,0
2016-11-06T02:08:47.828Z,0
2016-11-06T02:10:01.389Z,0
2016-11-06T02:11:14.401Z,0
2016-11-06T02:12:27.497Z,0
2016-11-06T02:13:41.077Z,0
2016-11-06T02:14:54.853Z,0
2016-11-06T02:16:07.321Z,0
2016-11-06T02:17:20.880Z,0
2016-11-06T02:18:33.869Z,0
2016-11-06T02:19:46.380Z,0
2016-11-06T02:20:59.981Z,0
2016-11-06T02:22:13.560Z,0
2016-11-06T02:23:27.179Z,0
2016-11-06T02:24:40.785Z,0
2016-11-06T02:25:54.243Z,0
2016-11-06T02:27:07.261Z,0
2016-11-06T02:28:20.822Z,0
2016-11-06T02:29:34.346Z,0
2016-11-06T02:30:47.418Z,0
2016-11-06T02:32:00.445Z,0
2016-11-06T02:33:14.082Z,0
2016-11-06T02:34:27.876Z,0
2016-11-06T02:35:41.498Z,0
2016-11-06T02:36:55.015Z,0
2016-11-06T02:38:08.751Z,0
2016-11-06T02:39:22.302Z,0
2016-11-06T02:40:35.563Z,0
2016-11-06T02:42:03.069Z,0
2016-11-06T02:43:16.658Z,0
2016-11-06T02:44:29.697Z,0
2016-11-06T02:45:43.252Z,0
2016-11-06T02:46:56.313Z,0
2016-11-06T02:48:09.405Z,0
2016-11-06T02:49:22.415Z,0
2016-11-06T02:50:36.036Z,0
2016-11-06T02:51:49.623Z,0
2016-11-06T02:53:02.373Z,0
2016-11-06T02:54:15.908Z,0
2016-11-06T02:55:29.451Z,0
2016-11-06T02:56:43.130Z,0
2016-11-06T02:57:55.688Z,0
2016-11-06T02:59:09.227Z,0
2016-11-06T03:00:22.868Z,0
2016-11-06T03:01:36.439Z,0
2016-11-06T03:02:49.520Z,0
2016-11-06T03:04:03.064Z,0
2016-11-06T03:05:16.586Z,0
2016-11-06T03:06:30.187Z,0
2016-11-06T03:07:43.799Z,0
2016-11-06T03:08:56.825Z,0
2016-11-06T03:10:09.777Z,0
2016-11-06T03:11:23.299Z,0
2016-11-06T03:12:36.397Z,0
2016-11-06T03:13:50.019Z,0
2016-11-06T03:15:03.565Z,0
2016-11-06T03:16:16.616Z,0
2016-11-06T03:17:30.220Z,0
2016-11-06T03:18:43.483Z,0
2016-11-06T03:19:57.112Z,0
2016-11-06T03:21:10.229Z,0
2016-11-06T03:22:23.577Z,0
2016-11-06T03:23:37.187Z,0
2016-11-06T03:24:50.794Z,0
2016-11-06T03:26:04.416Z,0
2016-11-06T03:27:17.948Z,0
2016-11-06T03:28:31.604Z,0
2016-11-06T03:29:45.185Z,0
2016-11-06T03:30:58.253Z,0
2016-11-06T03:32:11.883Z,0
2016-11-06T03:33:25.543Z,0
2016-11-06T03:34:39.114Z,0
2016-11-06T03:35:52.687Z,0
2016-11-06T03:37:06.344Z,0
2016-11-06T03:38:19.993Z,0
2016-11-06T03:39:33.528Z,0
2016-11-06T03:40:46.306Z,0
2016-11-06T03:41:59.931Z,0
2016-11-06T03:43:13.270Z,0
2016-11-06T03:44:26.919Z,0
2016-11-06T03:45:39.959Z,0
2016-11-06T03:46:53.581Z,0
2016-11-06T03:48:06.669Z,0
2016-11-06T03:49:20.216Z,0
2016-11-06T03:50:33.721Z,0
2016-11-06T03:51:46.264Z,0
2016-11-06T03:52:59.289Z,0
2016-11-06T03:54:11.762Z,0
2016-11-06T03:55:24.742Z,0
2016-11-06T03:56:38.352Z,0
2016-11-06T03:57:50.907Z,0
2016-11-06T03:59:03.467Z,0
2016-11-06T04:00:17.084Z,0
2016-11-06T04:01:30.722Z,0
2016-11-06T04:02:44.257Z,0
2016-11-06T04:03:57.294Z,0
2016-11-06T04:05:10.858Z,0
2016-11-06T04:06:23.972Z,0
2016-11-06T04:07:37.502Z,0
2016-11-06T04:08:51.135Z,0
2016-11-06T04:10:04.755Z,0
2016-11-06T04:11:18.342Z,0
2016-11-06T04:12:31.967Z,0
2016-11-06T04:13:45.542Z,0
2016-11-06T04:14:59.088Z,0
2016-11-06T04:16:12.675Z,0
2016-11-06T04:17:26.316Z,0
2016-11-06T04:18:38.282Z,0
2016-11-06T04:19:51.875Z,0
2016-11-06T04:21:36.636Z,0
2016-11-06T04:22:50.271Z,0
2016-11-06T04:24:03.618Z,0
2016-11-06T04:25:17.230Z,0
2016-11-06T04:26:30.821Z,0
2016-11-06T04:27:44.067Z,0
2016-11-06T04:28:57.614Z,0
2016-11-06T04:30:10.654Z,0
2016-11-06T04:31:24.223Z,0
2016-11-06T04:32:37.766Z,0
2016-11-06T04:33:51.305Z,0
2016-11-06T04:35:04.874Z,0
2016-11-06T04:36:18.525Z,0
2016-11-06T04:38:03.219Z,0
2016-11-06T04:39:16.291Z,0
2016-11-06T04:40:30.087Z,0
2016-11-06T04:41:43.689Z,0
2016-11-06T04:42:56.773Z,0
2016-11-06T04:44:10.272Z,0
2016-11-06T04:45:23.951Z,0
2016-11-06T04:46:37.514Z,0
2016-11-06T04:47:51.069Z,0
2016-11-06T04:49:35.792Z,0
2016-11-06T04:50:48.796Z,0
2016-11-06T04:52:01.798Z,0
2016-11-06T04:53:15.387Z,0
2016-11-06T04:54:28.970Z,0
2016-11-06T04:56:13.720Z,0
2016-11-06T04:57:27.293Z,0
2016-11-06T04:58:40.383Z,0
2016-11-06T04:59:54.009Z,0
2016-11-06T05:01:07.642Z,0
2016-11-06T05:02:21.290Z,0
2016-11-06T05:03:34.866Z,0
2016-11-06T05:04:48.450Z,0
2016-11-06T05:06:02.067Z,0
2016-11-06T05:07:15.714Z,0
2016-11-06T05:08:28.734Z,0
2016-11-06T05:09:42.259Z,0
2016-11-06T05:10:55.866Z,0
2016-11-06T05:12:09.490Z,0
2016-11-06T05:13:23.028Z,0
2016-11-06T05:14:36.030Z,0
2016-11-06T05:15:49.645Z,0
2016-11-06T05:17:02.708Z,0
2016-11-06T05:18:16.313Z,0
2016-11-06T05:19:29.931Z,0
2016-11-06T05:20:42.471Z,0
2016-11-06T05:21:56.326Z,0
2016-11-06T05:23:09.903Z,0
2016-11-06T05:24:23.486Z,0
2016-11-06T05:25:37.119Z,0
2016-11-06T05:26:50.719Z,0
2016-11-06T05:28:04.336Z,0
2016-11-06T05:29:16.834Z,0
2016-11-06T05:30:29.911Z,0
2016-11-06T05:31:42.401Z,0
2016-11-06T05:32:55.433Z,0
2016-11-06T05:34:08.539Z,0
2016-11-06T05:35:22.129Z,0
2016-11-06T05:36:35.648Z,0
2016-11-06T05:37:49.079Z,0
2016-11-06T05:39:02.609Z,0
2016-11-06T05:40:15.391Z,0
2016-11-06T05:41:28.486Z,0
2016-11-06T05:42:42.093Z,0
2016-11-06T05:43:55.181Z,0
2016-11-06T05:45:08.729Z,0
2016-11-06T05:46:22.566Z,0
2016-11-06T05:47:36.159Z,0
2016-11-06T05:48:49.686Z,0
2016-11-06T05:50:02.234Z,0
2016-11-06T05:51:15.272Z,0
2016-11-06T05:52:28.313Z,0
2016-11-06T05:53:40.848Z,0
2016-11-06T05:54:53.964Z,0
2016-11-06T05:56:06.973Z,0
2016-11-06T05:57:20.494Z,0
2016-11-06T05:58:34.107Z,0
2016-11-06T05:59:47.735Z,0
2016-11-06T06:01:01.109Z,0
2016-11-06T06:02:14.681Z,0
2016-11-06T06:03:28.302Z,0
2016-11-06T06:04:41.863Z,0
2016-11-06T06:05:54.685Z,0
2016-11-06T06:07:07.710Z,0
2016-11-06T06:08:21.309Z,0
2016-11-06T06:09:34.339Z,0
2016-11-06T06:10:47.889Z,0
2016-11-06T06:12:01.246Z,0
2016-11-06T06:13:14.891Z,0
2016-11-06T06:14:28.365Z,0
2016-11-06T06:15:41.466Z,0
2016-11-06T06:17:26.206Z,0
2016-11-06T06:18:39.741Z,0
2016-11-06T06:19:53.308Z,0
2016-11-06T06:21:06.929Z,0
2016-11-06T06:22:19.951Z,0
2016-11-06T06:23:33.630Z,0
2016-11-06T06:24:47.175Z,0
2016-11-06T06:26:00.273Z,0
2016-11-06T06:27:13.353Z,0
2016-11-06T06:28:26.978Z,0
2016-11-06T06:29:40.511Z,0
2016-11-06T06:30:54.113Z,0
2016-11-06T06:32:06.886Z,0
2016-11-06T06:33:20.417Z,0
2016-11-06T06:34:34.024Z,0
2016-11-06T06:35:47.099Z,0
2016-11-06T06:37:00.131Z,0
2016-11-06T06:38:13.172Z,0
2016-11-06T06:39:26.687Z,0
2016-11-06T06:40:40.272Z,0
2016-11-06T06:41:53.383Z,0
2016-11-06T06:43:06.412Z,0
2016-11-06T06:44:19.982Z,0
2016-11-06T06:45:33.551Z,0
2016-11-06T06:46:47.191Z,0
2016-11-06T06:48:00.800Z,0
2016-11-06T06:49:13.851Z,0
2016-11-06T06:50:26.935Z,0
2016-11-06T06:51:39.985Z,0
2016-11-06T06:52:52.486Z,0
2016-11-06T06:54:06.061Z,0
2016-11-06T06:55:19.644Z,0
2016-11-06T06:56:33.242Z,0
2016-11-06T06:57:46.472Z,0
2016-11-06T06:59:00.101Z,0
2016-11-06T07:00:13.650Z,0
2016-11-06T07:01:27.230Z,0
2016-11-06T07:02:40.556Z,0
2016-11-06T07:04:24.721Z,0
2016-11-06T07:05:37.221Z,0
2016-11-06T07:06:50.794Z,0
2016-11-06T07:08:04.365Z,0
2016-11-06T07:09:17.471Z,0
2016-11-06T07:10:31.110Z,0
2016-11-06T07:11:44.586Z,0
2016-11-06T07:12:58.181Z,0
2016-11-06T07:15:56.528Z,0
2016-11-06T07:17:10.127Z,0
2016-11-06T07:18:23.742Z,0
2016-11-06T07:19:36.774Z,0
2016-11-06T07:20:50.417Z,0
2016-11-06T07:22:04.020Z,0
2016-11-06T07:23:17.304Z,0
2016-11-06T07:24:30.833Z,0
2016-11-06T07:25:44.335Z,0
2016-11-06T07:26:57.897Z,0
2016-11-06T07:28:10.916Z,0
2016-11-06T07:29:24.504Z,0
2016-11-06T07:30:37.502Z,0
2016-11-06T07:31:51.015Z,0
2016-11-06T07:33:04.657Z,0
2016-11-06T07:34:17.721Z,0
2016-11-06T07:35:31.296Z,0
2016-11-06T07:36:44.393Z,0
2016-11-06T07:37:57.468Z,0
2016-11-06T07:39:11.006Z,0
2016-11-06T07:40:24.057Z,0
2016-11-06T07:41:37.687Z,0
2016-11-06T07:42:51.199Z,0
2016-11-06T07:44:04.772Z,0
2016-11-06T07:45:18.360Z,0
2016-11-06T07:46:31.880Z,0
2016-11-06T07:47:45.466Z,0
2016-11-06T07:48:59.022Z,0
2016-11-06T07:50:12.527Z,0
2016-11-06T07:51:26.080Z,0
2016-11-06T07:52:39.153Z,0
2016-11-06T07:53:52.723Z,0
2016-11-06T07:55:06.379Z,0
2016-11-06T07:56:19.571Z,0
2016-11-06T07:57:33.182Z,0
2016-11-06T07:58:46.868Z,0
2016-11-06T07:59:59.934Z,0
2016-11-06T08:01:13.462Z,0
2016-11-06T08:02:27.040Z,0
2016-11-06T08:03:40.636Z,0
2016-11-06T08:04:53.645Z,0
2016-11-06T08:06:07.191Z,4
2016-11-06T08:07:20.002Z,4
2016-11-06T08:08:33.605Z,0
2016-11-06T08:09:46.684Z,4
2016-11-06T08:11:00.306Z,0
2016-11-06T08:12:13.831Z,4
2016-11-06T08:13:27.011Z,4
2016-11-06T08:14:40.112Z,8
2016-11-06T08:15:53.440Z,8
2016-11-06T08:17:06.514Z,8
2016-11-06T08:18:20.088Z,12
2016-11-06T08:19:33.608Z,12
2016-11-06T08:20:47.163Z,16
2016-11-06T08:22:00.200Z,12
2016-11-06T08:23:13.817Z,12
2016-11-06T08:24:27.423Z,16
2016-11-06T08:25:40.998Z,16
2016-11-06T08:26:54.616Z,20
2016-11-06T08:28:08.236Z,24
2016-11-06T08:29:21.830Z,28
2016-11-06T08:30:34.323Z,32
2016-11-06T08:31:46.824Z,36
2016-11-06T08:33:00.461Z,36
2016-11-06T08:34:14.124Z,40
2016-11-06T08:35:27.168Z,40
2016-11-06T08:36:40.739Z,44
2016-11-06T08:37:54.371Z,44
2016-11-06T08:39:07.397Z,56
2016-11-06T08:40:21.057Z,68
2016-11-06T08:41:33.665Z,80
2016-11-06T08:42:47.253Z,80
2016-11-06T08:44:00.737Z,88
2016-11-06T08:45:13.807Z,100
2016-11-06T08:46:27.464Z,104
2016-11-06T08:47:41.027Z,120
2016-11-06T08:48:54.641Z,144
2016-11-06T08:50:08.189Z,144
2016-11-06T08:51:21.808Z,148
2016-11-06T08:52:35.441Z,176
2016-11-06T08:53:49.081Z,200
2016-11-06T08:55:02.638Z,188
2016-11-06T08:56:16.242Z,188
2016-11-06T08:57:30.099Z,184
2016-11-06T08:58:43.637Z,204
2016-11-06T08:59:57.203Z,200
2016-11-06T09:01:10.248Z,232
2016-11-06T09:02:23.808Z,284
2016-11-06T09:03:36.879Z,252
2016-11-06T09:04:50.445Z,272
2016-11-06T09:06:03.502Z,328
2016-11-06T09:07:17.132Z,328
2016-11-06T09:08:30.220Z,296
2016-11-06T09:09:43.270Z,324
2016-11-06T09:10:57.019Z,280
2016-11-06T09:12:10.650Z,272
2016-11-06T09:13:55.332Z,264
2016-11-06T09:15:08.410Z,300
2016-11-06T09:16:22.001Z,332
2016-11-06T09:17:35.642Z,320
2016-11-06T09:18:48.647Z,308
2016-11-06T09:20:02.287Z,284
2016-11-06T09:21:15.327Z,284
2016-11-06T09:22:28.877Z,296
2016-11-06T09:23:42.388Z,276
2016-11-06T09:24:55.407Z,344
2016-11-06T09:26:08.486Z,352
2016-11-06T09:27:22.140Z,332
2016-11-06T09:28:35.713Z,336
2016-11-06T09:29:48.786Z,372
2016-11-06T09:31:01.863Z,400
2016-11-06T09:32:15.416Z,468
2016-11-06T09:33:29.026Z,624
2016-11-06T09:34:42.553Z,628
2016-11-06T09:35:55.809Z,660
2016-11-06T09:37:09.414Z,752
2016-11-06T09:38:23.102Z,700
2016-11-06T09:39:36.711Z,688
2016-11-06T09:40:50.305Z,704
2016-11-06T09:42:03.912Z,704
2016-11-06T09:43:17.010Z,556
2016-11-06T09:44:30.576Z,468
2016-11-06T09:45:43.670Z,460
2016-11-06T09:46:57.275Z,420
2016-11-06T09:48:10.864Z,448
2016-11-06T09:49:23.926Z,444
2016-11-06T09:50:37.542Z,436
2016-11-06T09:51:51.114Z,564
2016-11-06T09:53:03.739Z,688
2016-11-06T09:54:17.084Z,692
2016-11-06T09:55:30.632Z,700
2016-11-06T09:56:44.301Z,660
2016-11-06T09:57:57.913Z,712
2016-11-06T09:59:11.505Z,760
2016-11-06T10:00:24.582Z,764
2016-11-06T10:01:38.209Z,636
2016-11-06T10:02:51.898Z,560
2016-11-06T10:04:04.975Z,532
2016-11-06T10:05:18.030Z,752
2016-11-06T10:06:30.525Z,840
2016-11-06T10:07:43.620Z,792
2016-11-06T10:08:57.184Z,688
2016-11-06T10:10:10.458Z,672
2016-11-06T10:11:24.040Z,616
2016-11-06T10:12:37.601Z,596
2016-11-06T10:13:50.183Z,576
2016-11-06T10:15:03.277Z,604
2016-11-06T10:16:16.585Z,644
2016-11-06T10:17:29.565Z,628
2016-11-06T10:18:42.350Z,672
2016-11-06T10:19:55.901Z,616
2016-11-06T10:21:09.509Z,664
2016-11-06T10:22:22.803Z,688
2016-11-06T10:23:35.845Z,716
2016-11-06T10:24:49.722Z,760
2016-11-06T10:26:02.783Z,644
2016-11-06T10:27:16.615Z,584
2016-11-06T10:28:30.145Z,664
2016-11-06T10:29:43.088Z,692
2016-11-06T10:30:56.657Z,664
2016-11-06T10:32:09.957Z,640
2016-11-06T10:33:23.574Z,644
2016-11-06T10:34:37.250Z,704
2016-11-06T10:35:50.290Z,816
2016-11-06T10:37:03.842Z,932
2016-11-06T10:38:16.859Z,936
2016-11-06T10:39:30.483Z,844
2016-11-06T10:40:44.100Z,860
2016-11-06T10:41:57.671Z,884
2016-11-06T10:43:11.190Z,832
2016-11-06T10:44:24.289Z,956
2016-11-06T10:45:37.330Z,896
2016-11-06T10:46:50.643Z,772
2016-11-06T10:48:04.270Z,888
2016-11-06T10:49:17.338Z,852
2016-11-06T10:50:30.983Z,812
2016-11-06T10:51:44.647Z,860
2016-11-06T10:52:57.128Z,996
2016-11-06T10:54:10.687Z,932
2016-11-06T10:55:24.256Z,876
2016-11-06T10:56:37.936Z,820
2016-11-06T10:57:50.680Z,916
2016-11-06T10:59:04.270Z,1004
2016-11-06T11:00:17.316Z,1032
2016-11-06T11:01:30.860Z,1048
2016-11-06T11:02:44.430Z,1060
2016-11-06T11:04:29.144Z,1092
2016-11-06T11:05:42.418Z,1176
2016-11-06T11:06:56.000Z,1212
2016-11-06T11:08:09.274Z,1172
2016-11-06T11:09:22.861Z,1060
2016-11-06T11:10:35.886Z,952
2016-11-06T11:11:49.692Z,904
2016-11-06T11:13:03.266Z,860
2016-11-06T11:14:16.898Z,812
2016-11-06T11:15:30.502Z,804
2016-11-06T11:16:44.065Z,932
2016-11-06T11:17:57.097Z,1076
2016-11-06T11:19:10.761Z,1076
2016-11-06T11:20:24.368Z,1304
2016-11-06T11:21:37.931Z,1352
2016-11-06T11:22:51.442Z,1104
2016-11-06T11:24:04.496Z,964
2016-11-06T11:25:17.923Z,972
2016-11-06T11:26:31.533Z,972
2016-11-06T11:27:45.150Z,1104
2016-11-06T11:28:58.199Z,1116
2016-11-06T11:30:11.915Z,1176
2016-11-06T11:31:25.499Z,1304
2016-11-06T11:32:39.019Z,1312
2016-11-06T11:33:52.089Z,1276
2016-11-06T11:35:05.099Z,1312
2016-11-06T11:36:18.362Z,1348
2016-11-06T11:37:31.404Z,1316
2016-11-06T11:38:44.964Z,1472
2016-11-06T11:39:58.553Z,1624
2016-11-06T11:41:12.189Z,1780
2016-11-06T11:42:25.921Z,1828
2016-11-06T11:43:39.540Z,1680
2016-11-06T11:44:52.530Z,1444
2016-11-06T11:46:05.635Z,1236
2016-11-06T11:47:18.704Z,1288
2016-11-06T11:48:32.247Z,1476
2016-11-06T11:49:45.363Z,1720
2016-11-06T11:50:58.941Z,1764
2016-11-06T11:52:12.448Z,1896
2016-11-06T11:53:26.057Z,1956
2016-11-06T11:54:39.702Z,1976
2016-11-06T11:55:53.295Z,1980
2016-11-06T11:57:06.915Z,1928
2016-11-06T11:58:20.403Z,2020
2016-11-06T11:59:33.475Z,2080
2016-11-06T12:00:47.066Z,2268
2016-11-06T12:02:00.659Z,2152
2016-11-06T12:03:14.233Z,2088
2016-11-06T12:04:27.796Z,2080
2016-11-06T12:05:41.506Z,1960
2016-11-06T12:06:54.994Z,1744
2016-11-06T12:08:08.584Z,1744
2016-11-06T12:09:22.297Z,1864
2016-11-06T12:10:35.836Z,1796
2016-11-06T12:11:49.674Z,1584
2016-11-06T12:13:02.218Z,1616
2016-11-06T12:14:15.760Z,1736
2016-11-06T12:15:28.826Z,1824
2016-11-06T12:16:41.828Z,1800
2016-11-06T12:17:55.162Z,1628
2016-11-06T12:19:08.858Z,1656
2016-11-06T12:20:22.856Z,1676
2016-11-06T12:21:36.445Z,1760
2016-11-06T12:22:49.699Z,2168
2016-11-06T12:24:03.297Z,2000
2016-11-06T12:25:16.897Z,1848
2016-11-06T12:26:30.466Z,2444
2016-11-06T12:27:44.074Z,2968
2016-11-06T12:28:57.723Z,1996
2016-11-06T12:30:11.293Z,1696
2016-11-06T12:31:24.952Z,1856
2016-11-06T12:32:38.003Z,2164
2016-11-06T12:33:51.079Z,2880
2016-11-06T12:35:04.627Z,2988
2016-11-06T12:36:18.190Z,2560
2016-11-06T12:37:31.753Z,1960
2016-11-06T12:38:45.271Z,1732
2016-11-06T12:39:59.092Z,1908
2016-11-06T12:41:12.149Z,3028
2016-11-06T12:42:25.968Z,1196
2016-11-06T12:43:38.946Z,1488
2016-11-06T12:44:52.812Z,3632
2016-11-06T12:46:05.899Z,4524
2016-11-06T12:47:18.976Z,3904
2016-11-06T12:48:31.541Z,1664
2016-11-06T12:49:45.172Z,2956
2016-11-06T12:50:59.048Z,2172
2016-11-06T12:52:12.656Z,3588
2016-11-06T12:53:25.954Z,5288
2016-11-06T12:54:39.571Z,5404
2016-11-06T12:55:53.184Z,5272
2016-11-06T12:57:06.742Z,1740
2016-11-06T12:58:19.988Z,1128
2016-11-06T12:59:33.030Z,2236
2016-11-06T13:00:46.697Z,4948
2016-11-06T13:02:00.284Z,4924
2016-11-06T13:03:13.922Z,4576
2016-11-06T13:04:27.456Z,5156
2016-11-06T13:05:40.719Z,2792
2016-11-06T13:06:54.361Z,4468
2016-11-06T13:08:07.454Z,4692
2016-11-06T13:09:21.041Z,4040
2016-11-06T13:10:34.679Z,4732
2016-11-06T13:11:47.154Z,3716
2016-11-06T13:13:00.797Z,2252
2016-11-06T13:14:14.376Z,2048
2016-11-06T13:15:27.465Z,2164
2016-11-06T13:16:41.035Z,2672
2016-11-06T13:17:54.715Z,6380
2016-11-06T13:19:08.367Z,6140
2016-11-06T13:20:21.422Z,6196
2016-11-06T13:21:33.956Z,6364
2016-11-06T13:22:47.076Z,6384
2016-11-06T13:24:00.586Z,6304
2016-11-06T13:25:13.664Z,6228
2016-11-06T13:26:26.399Z,6220
2016-11-06T13:27:39.477Z,6400
2016-11-06T13:28:52.310Z,6420
2016-11-06T13:30:05.453Z,6540
2016-11-06T13:31:19.014Z,6512
2016-11-06T13:32:31.773Z,6216
2016-11-06T13:33:45.379Z,5312
2016-11-06T13:34:59.069Z,2788
2016-11-06T13:36:12.119Z,2896
2016-11-06T13:37:25.965Z,7628
2016-11-06T13:38:39.582Z,5292
2016-11-06T13:39:53.095Z,2608
2016-11-06T13:41:06.640Z,5620
2016-11-06T13:42:20.220Z,2856
2016-11-06T13:43:33.287Z,2984
2016-11-06T13:44:46.298Z,2344
2016-11-06T13:45:59.827Z,6252
2016-11-06T13:47:13.445Z,6548
2016-11-06T13:48:27.451Z,5408
2016-11-06T13:49:40.948Z,6504
2016-11-06T13:50:54.486Z,5196
2016-11-06T13:52:08.020Z,6432
2016-11-06T13:53:21.118Z,6712
2016-11-06T13:54:34.446Z,5388
2016-11-06T13:55:47.480Z,5176
2016-11-06T13:57:01.088Z,4808
2016-11-06T13:58:14.090Z,6992
2016-11-06T13:59:27.160Z,6516
2016-11-06T14:00:40.768Z,6836
2016-11-06T14:01:54.299Z,7220
2016-11-06T14:03:07.975Z,7352
2016-11-06T14:04:21.037Z,5688
2016-11-06T14:05:34.575Z,7300
2016-11-06T14:06:48.251Z,3356
2016-11-06T14:08:01.303Z,4792
2016-11-06T14:09:14.837Z,7884
2016-11-06T14:10:28.129Z,2984
2016-11-06T14:12:12.787Z,6812
2016-11-06T14:13:26.327Z,8820
2016-11-06T14:14:39.897Z,3296
2016-11-06T14:15:52.985Z,4084
2016-11-06T14:17:04.989Z,6856
2016-11-06T14:18:18.577Z,5600
2016-11-06T14:19:32.512Z,4944
2016-11-06T14:21:17.191Z,7256
2016-11-06T14:22:30.339Z,6688
2016-11-06T14:23:43.900Z,7940
2016-11-06T14:24:57.615Z,4312
2016-11-06T14:26:10.872Z,2632
2016-11-06T14:27:23.991Z,2272
2016-11-06T14:28:37.307Z,2188
2016-11-06T14:29:49.879Z,2728
2016-11-06T14:31:03.170Z,4172
2016-11-06T14:32:15.997Z,2740
2016-11-06T14:33:29.585Z,4612
2016-11-06T14:34:42.670Z,5616
2016-11-06T14:35:56.119Z,4820
2016-11-06T14:37:09.782Z,4152
2016-11-06T14:38:23.420Z,10144
2016-11-06T14:39:37.007Z,9920
2016-11-06T14:40:50.699Z,9828
2016-11-06T14:42:03.227Z,9760
2016-11-06T14:43:16.837Z,6888
2016-11-06T14:44:30.516Z,3988
2016-11-06T14:45:43.840Z,5096
2016-11-06T14:46:57.393Z,10632
2016-11-06T14:48:10.487Z,4016
2016-11-06T14:49:23.259Z,2800
2016-11-06T14:50:36.267Z,2920
2016-11-06T14:51:49.904Z,8972
2016-11-06T14:53:03.586Z,10952
2016-11-06T14:54:17.151Z,5632
2016-11-06T14:55:30.647Z,7196
2016-11-06T14:56:44.312Z,5100
2016-11-06T14:57:57.888Z,6476
2016-11-06T14:59:10.852Z,3160
2016-11-06T15:00:24.409Z,5196
2016-11-06T15:01:37.983Z,5008
2016-11-06T15:02:51.012Z,5292
2016-11-06T15:04:04.080Z,9552
2016-11-06T15:05:17.617Z,5412
2016-11-06T15:06:31.259Z,5584
2016-11-06T15:07:44.353Z,7636
2016-11-06T15:08:57.431Z,8676
2016-11-06T15:10:11.050Z,4588
2016-11-06T15:11:24.665Z,7316
2016-11-06T15:12:38.333Z,5328
2016-11-06T15:13:51.935Z,8188
2016-11-06T15:15:04.894Z,2984
2016-11-06T15:16:18.462Z,3012
2016-11-06T15:17:31.660Z,4188
2016-11-06T15:18:44.712Z,3216
2016-11-06T15:19:58.255Z,4536
2016-11-06T15:21:11.882Z,3508
2016-11-06T15:22:25.521Z,8480
2016-11-06T15:23:39.065Z,10008
2016-11-06T15:24:52.897Z,9328
2016-11-06T15:26:06.034Z,9172
2016-11-06T15:27:20.008Z,9512
2016-11-06T15:28:33.273Z,9196
2016-11-06T15:29:46.974Z,3312
2016-11-06T15:31:00.606Z,2984
2016-11-06T15:32:13.877Z,6828
2016-11-06T15:33:26.660Z,7212
2016-11-06T15:34:39.649Z,7576
2016-11-06T15:35:53.296Z,7804
2016-11-06T15:37:06.879Z,7812
2016-11-06T15:38:20.457Z,9328
2016-11-06T15:39:33.553Z,9444
2016-11-06T15:40:47.171Z,9188
2016-11-06T15:42:00.780Z,9012
2016-11-06T15:43:14.365Z,9140
2016-11-06T15:44:27.941Z,9052
2016-11-06T15:45:41.084Z,8948
2016-11-06T15:46:54.750Z,8780
2016-11-06T15:48:08.253Z,8768
2016-11-06T15:49:21.851Z,8884
2016-11-06T15:50:35.441Z,3116
2016-11-06T15:51:49.020Z,2084
2016-11-06T15:53:02.084Z,7740
2016-11-06T15:54:15.631Z,9268
2016-11-06T15:55:29.244Z,4588
2016-11-06T15:56:42.863Z,4500
2016-11-06T15:57:56.162Z,9320
2016-11-06T15:59:09.757Z,7416
2016-11-06T16:00:23.348Z,9588
2016-11-06T16:01:37.004Z,8208
2016-11-06T16:02:50.589Z,4280
2016-11-06T16:04:04.125Z,3128
2016-11-06T16:05:17.688Z,2236
2016-11-06T16:06:30.753Z,2028
2016-11-06T16:07:44.130Z,2208
2016-11-06T16:08:57.187Z,4884
2016-11-06T16:10:10.255Z,2404
2016-11-06T16:11:23.923Z,2684
2016-11-06T16:12:37.008Z,9176
2016-11-06T16:13:50.142Z,9256
2016-11-06T16:15:03.224Z,9932
2016-11-06T16:16:16.326Z,9176
2016-11-06T16:17:29.934Z,9068
2016-11-06T16:18:43.520Z,8932
2016-11-06T16:19:56.114Z,8704
2016-11-06T16:21:09.713Z,6028
2016-11-06T16:22:23.372Z,4336
2016-11-06T16:23:36.973Z,7468
2016-11-06T16:24:50.623Z,9456
2016-11-06T16:26:03.679Z,9488
2016-11-06T16:27:17.263Z,9920
2016-11-06T16:28:30.263Z,10088
2016-11-06T16:29:43.834Z,7360
2016-11-06T16:30:57.619Z,10052
2016-11-06T16:32:11.329Z,9728
2016-11-06T16:33:24.693Z,8784
2016-11-06T16:34:37.762Z,9300
2016-11-06T16:35:51.330Z,9500
2016-11-06T16:37:04.950Z,9312
2016-11-06T16:38:18.578Z,2572
2016-11-06T16:39:32.114Z,2172
2016-11-06T16:40:44.658Z,4656
2016-11-06T16:41:57.129Z,7816
2016-11-06T16:43:10.681Z,5208
2016-11-06T16:44:38.215Z,8708
2016-11-06T16:45:51.199Z,9040
2016-11-06T16:47:04.596Z,9084
2016-11-06T16:48:17.149Z,9336
2016-11-06T16:49:30.523Z,2348
2016-11-06T16:50:43.598Z,2284
2016-11-06T16:51:57.068Z,2304
2016-11-06T16:53:10.718Z,2052
2016-11-06T16:54:24.306Z,2236
2016-11-06T16:55:37.808Z,3012
2016-11-06T16:56:51.435Z,1912
2016-11-06T16:58:05.029Z,2332
2016-11-06T16:59:18.657Z,9740
2016-11-06T17:00:32.327Z,2208
2016-11-06T17:01:45.953Z,6700
2016-11-06T17:02:59.510Z,7596
2016-11-06T17:04:13.110Z,3412
2016-11-06T17:05:26.657Z,4868
2016-11-06T17:06:40.244Z,4924
2016-11-06T17:07:53.486Z,7808
2016-11-06T17:09:06.012Z,9076
2016-11-06T17:10:19.952Z,9164
2016-11-06T17:11:33.591Z,9080
2016-11-06T17:13:00.353Z,2364
2016-11-06T17:14:13.234Z,1752
2016-11-06T17:15:26.520Z,1764
2016-11-06T17:16:40.108Z,7860
2016-11-06T17:17:53.773Z,4320
2016-11-06T17:19:07.323Z,3876
2016-11-06T17:20:20.931Z,9000